sensor_id;sensor_type;location;lat;lon;timestamp;temperature;humidity
17687;DHT22;8962;52.538;13.266;2022-08-30T00:02:26;15.90;99.90
17687;DHT22;8962;52.538;13.266;2022-08-30T00:04:53;15.90;99.90
17687;DHT22;8962;52.538;13.266;2022-08-30T00:07:21;15.90;99.90
17687;DHT22;8962;52.538;13.266;2022-08-30T00:09:48;15.90;99.90
17687;DHT22;8962;52.538;13.266;2022-08-30T00:12:15;15.90;99.90
17687;DHT22;8962;52.538;13.266;2022-08-30T00:14:42;15.90;99.90
17687;DHT22;8962;52.538;13.266;2022-08-30T00:17:09;16.00;99.90
17687;DHT22;8962;52.538;13.266;2022-08-30T00:19:38;16.00;99.90
17687;DHT22;8962;52.538;13.266;2022-08-30T00:22:06;16.00;99.90
17687;DHT22;8962;52.538;13.266;2022-08-30T00:24:35;16.00;99.90
17687;DHT22;8962;52.538;13.266;2022-08-30T00:27:03;16.00;99.90
17687;DHT22;8962;52.538;13.266;2022-08-30T00:29:30;16.00;99.90
17687;DHT22;8962;52.538;13.266;2022-08-30T00:31:58;16.00;99.90
17687;DHT22;8962;52.538;13.266;2022-08-30T00:34:27;16.00;99.90
17687;DHT22;8962;52.538;13.266;2022-08-30T00:36:56;16.00;99.90
17687;DHT22;8962;52.538;13.266;2022-08-30T00:39:23;16.00;99.90
17687;DHT22;8962;52.538;13.266;2022-08-30T00:41:51;16.00;99.90
17687;DHT22;8962;52.538;13.266;2022-08-30T00:44:18;16.00;99.90
17687;DHT22;8962;52.538;13.266;2022-08-30T00:46:45;16.00;99.90
17687;DHT22;8962;52.538;13.266;2022-08-30T00:49:12;16.00;99.90
17687;DHT22;8962;52.538;13.266;2022-08-30T00:51:40;15.90;99.90
17687;DHT22;8962;52.538;13.266;2022-08-30T00:54:09;15.90;99.90
17687;DHT22;8962;52.538;13.266;2022-08-30T00:56:37;15.90;99.90
17687;DHT22;8962;52.538;13.266;2022-08-30T00:59:05;15.80;99.90
17687;DHT22;8962;52.538;13.266;2022-08-30T01:01:34;15.80;99.90
17687;DHT22;8962;52.538;13.266;2022-08-30T01:04:05;15.70;99.90
17687;DHT22;8962;52.538;13.266;2022-08-30T01:06:35;15.70;99.90
17687;DHT22;8962;52.538;13.266;2022-08-30T01:09:08;15.70;99.90
17687;DHT22;8962;52.538;13.266;2022-08-30T01:11:40;15.70;99.90
17687;DHT22;8962;52.538;13.266;2022-08-30T01:14:08;15.70;99.90
17687;DHT22;8962;52.538;13.266;2022-08-30T01:16:37;15.70;99.90
17687;DHT22;8962;52.538;13.266;2022-08-30T01:19:11;15.70;99.90
17687;DHT22;8962;52.538;13.266;2022-08-30T01:21:46;15.70;99.90
17687;DHT22;8962;52.538;13.266;2022-08-30T01:24:17;15.70;99.90
17687;DHT22;8962;52.538;13.266;2022-08-30T01:26:45;15.70;99.90
17687;DHT22;8962;52.538;13.266;2022-08-30T01:29:15;15.70;99.90
17687;DHT22;8962;52.538;13.266;2022-08-30T01:31:44;15.80;99.90
17687;DHT22;8962;52.538;13.266;2022-08-30T01:34:12;15.80;99.90
17687;DHT22;8962;52.538;13.266;2022-08-30T01:36:41;15.80;99.90
17687;DHT22;8962;52.538;13.266;2022-08-30T01:39:11;15.80;99.90
17687;DHT22;8962;52.538;13.266;2022-08-30T01:41:40;15.80;99.90
17687;DHT22;8962;52.538;13.266;2022-08-30T01:44:09;15.80;99.90
17687;DHT22;8962;52.538;13.266;2022-08-30T01:46:39;15.90;99.90
17687;DHT22;8962;52.538;13.266;2022-08-30T01:49:11;15.90;99.90
17687;DHT22;8962;52.538;13.266;2022-08-30T01:51:39;15.90;99.90
17687;DHT22;8962;52.538;13.266;2022-08-30T01:54:07;15.80;99.90
17687;DHT22;8962;52.538;13.266;2022-08-30T01:56:35;15.80;99.90
17687;DHT22;8962;52.538;13.266;2022-08-30T01:59:04;15.80;99.90
17687;DHT22;8962;52.538;13.266;2022-08-30T02:01:34;15.70;99.90
17687;DHT22;8962;52.538;13.266;2022-08-30T02:04:05;15.60;99.90
17687;DHT22;8962;52.538;13.266;2022-08-30T02:06:33;15.50;99.90
17687;DHT22;8962;52.538;13.266;2022-08-30T02:09:00;15.50;99.90
17687;DHT22;8962;52.538;13.266;2022-08-30T02:11:27;15.50;99.90
17687;DHT22;8962;52.538;13.266;2022-08-30T02:13:55;15.40;99.90
17687;DHT22;8962;52.538;13.266;2022-08-30T02:16:26;15.30;99.90
17687;DHT22;8962;52.538;13.266;2022-08-30T02:18:54;15.40;99.90
17687;DHT22;8962;52.538;13.266;2022-08-30T02:21:22;15.30;99.90
17687;DHT22;8962;52.538;13.266;2022-08-30T02:23:50;15.30;99.90
17687;DHT22;8962;52.538;13.266;2022-08-30T02:26:18;15.30;99.90
17687;DHT22;8962;52.538;13.266;2022-08-30T02:28:47;15.30;99.90
17687;DHT22;8962;52.538;13.266;2022-08-30T02:31:17;15.30;99.90
17687;DHT22;8962;52.538;13.266;2022-08-30T02:33:46;15.30;99.90
17687;DHT22;8962;52.538;13.266;2022-08-30T02:36:15;15.20;99.90
17687;DHT22;8962;52.538;13.266;2022-08-30T02:38:42;15.20;99.90
17687;DHT22;8962;52.538;13.266;2022-08-30T02:41:10;15.20;99.90
17687;DHT22;8962;52.538;13.266;2022-08-30T02:43:37;15.20;99.90
17687;DHT22;8962;52.538;13.266;2022-08-30T02:46:05;15.10;99.90
17687;DHT22;8962;52.538;13.266;2022-08-30T02:48:32;15.00;99.90
17687;DHT22;8962;52.538;13.266;2022-08-30T02:51:06;15.00;99.90
17687;DHT22;8962;52.538;13.266;2022-08-30T02:53:33;15.00;99.90
17687;DHT22;8962;52.538;13.266;2022-08-30T02:56:00;15.00;99.90
17687;DHT22;8962;52.538;13.266;2022-08-30T02:58:27;14.90;99.90
17687;DHT22;8962;52.538;13.266;2022-08-30T03:00:55;14.90;99.90
17687;DHT22;8962;52.538;13.266;2022-08-30T03:03:25;14.80;99.90
17687;DHT22;8962;52.538;13.266;2022-08-30T03:06:07;14.80;99.90
17687;DHT22;8962;52.538;13.266;2022-08-30T03:08:37;14.70;99.90
17687;DHT22;8962;52.538;13.266;2022-08-30T03:11:04;14.70;99.90
17687;DHT22;8962;52.538;13.266;2022-08-30T03:13:32;14.70;99.90
17687;DHT22;8962;52.538;13.266;2022-08-30T03:15:59;14.70;99.90
17687;DHT22;8962;52.538;13.266;2022-08-30T03:18:27;14.70;99.90
17687;DHT22;8962;52.538;13.266;2022-08-30T03:20:54;14.70;99.90
17687;DHT22;8962;52.538;13.266;2022-08-30T03:23:25;14.70;99.90
17687;DHT22;8962;52.538;13.266;2022-08-30T03:25:52;14.80;99.90
17687;DHT22;8962;52.538;13.266;2022-08-30T03:28:19;14.70;99.90
17687;DHT22;8962;52.538;13.266;2022-08-30T03:30:46;14.70;99.90
17687;DHT22;8962;52.538;13.266;2022-08-30T03:33:13;14.80;99.90
17687;DHT22;8962;52.538;13.266;2022-08-30T03:35:43;14.80;99.90
17687;DHT22;8962;52.538;13.266;2022-08-30T03:38:10;14.80;99.90
17687;DHT22;8962;52.538;13.266;2022-08-30T03:40:38;14.80;99.90
17687;DHT22;8962;52.538;13.266;2022-08-30T03:43:06;14.80;99.90
17687;DHT22;8962;52.538;13.266;2022-08-30T03:45:34;14.80;99.90
17687;DHT22;8962;52.538;13.266;2022-08-30T03:48:01;14.90;99.90
17687;DHT22;8962;52.538;13.266;2022-08-30T03:50:29;14.90;99.90
17687;DHT22;8962;52.538;13.266;2022-08-30T03:53:01;14.80;99.90
17687;DHT22;8962;52.538;13.266;2022-08-30T03:55:28;14.90;99.90
17687;DHT22;8962;52.538;13.266;2022-08-30T03:57:57;14.90;99.90
17687;DHT22;8962;52.538;13.266;2022-08-30T04:00:24;15.00;99.90
17687;DHT22;8962;52.538;13.266;2022-08-30T04:02:52;15.00;99.90
17687;DHT22;8962;52.538;13.266;2022-08-30T04:05:19;15.00;99.90
17687;DHT22;8962;52.538;13.266;2022-08-30T04:07:46;15.00;99.90
17687;DHT22;8962;52.538;13.266;2022-08-30T04:10:13;14.90;99.90
17687;DHT22;8962;52.538;13.266;2022-08-30T04:12:42;14.90;99.90
17687;DHT22;8962;52.538;13.266;2022-08-30T04:15:12;14.90;99.90
17687;DHT22;8962;52.538;13.266;2022-08-30T04:17:40;14.90;99.90
17687;DHT22;8962;52.538;13.266;2022-08-30T04:20:08;14.90;99.90
17687;DHT22;8962;52.538;13.266;2022-08-30T04:22:36;14.80;99.90
17687;DHT22;8962;52.538;13.266;2022-08-30T04:25:04;14.80;99.90
17687;DHT22;8962;52.538;13.266;2022-08-30T04:27:31;14.80;99.90
17687;DHT22;8962;52.538;13.266;2022-08-30T04:29:59;14.80;99.90
17687;DHT22;8962;52.538;13.266;2022-08-30T04:32:28;14.70;99.90
17687;DHT22;8962;52.538;13.266;2022-08-30T04:34:56;14.70;99.90
17687;DHT22;8962;52.538;13.266;2022-08-30T04:37:24;14.70;99.90
17687;DHT22;8962;52.538;13.266;2022-08-30T04:39:54;14.70;99.90
17687;DHT22;8962;52.538;13.266;2022-08-30T04:42:22;14.60;99.90
17687;DHT22;8962;52.538;13.266;2022-08-30T04:44:49;14.60;99.90
17687;DHT22;8962;52.538;13.266;2022-08-30T04:47:19;14.70;99.90
17687;DHT22;8962;52.538;13.266;2022-08-30T04:49:47;14.70;99.90
17687;DHT22;8962;52.538;13.266;2022-08-30T04:52:14;14.80;99.90
17687;DHT22;8962;52.538;13.266;2022-08-30T04:54:42;14.80;99.90
17687;DHT22;8962;52.538;13.266;2022-08-30T04:57:09;14.80;99.90
17687;DHT22;8962;52.538;13.266;2022-08-30T04:59:37;14.80;99.90
17687;DHT22;8962;52.538;13.266;2022-08-30T05:02:05;14.80;99.90
17687;DHT22;8962;52.538;13.266;2022-08-30T05:04:32;14.90;99.90
17687;DHT22;8962;52.538;13.266;2022-08-30T05:07:01;14.90;99.90
17687;DHT22;8962;52.538;13.266;2022-08-30T05:09:28;15.00;99.90
17687;DHT22;8962;52.538;13.266;2022-08-30T05:11:55;15.00;99.90
17687;DHT22;8962;52.538;13.266;2022-08-30T05:14:22;15.00;99.90
17687;DHT22;8962;52.538;13.266;2022-08-30T05:16:49;15.00;99.90
17687;DHT22;8962;52.538;13.266;2022-08-30T05:19:17;15.00;99.90
17687;DHT22;8962;52.538;13.266;2022-08-30T05:21:44;15.00;99.90
17687;DHT22;8962;52.538;13.266;2022-08-30T05:24:13;15.10;99.90
17687;DHT22;8962;52.538;13.266;2022-08-30T05:26:40;15.10;99.90
17687;DHT22;8962;52.538;13.266;2022-08-30T05:29:09;15.20;99.90
17687;DHT22;8962;52.538;13.266;2022-08-30T05:31:36;15.20;99.90
17687;DHT22;8962;52.538;13.266;2022-08-30T05:34:04;15.20;99.90
17687;DHT22;8962;52.538;13.266;2022-08-30T05:36:33;15.30;99.90
17687;DHT22;8962;52.538;13.266;2022-08-30T05:39:01;15.30;99.90
17687;DHT22;8962;52.538;13.266;2022-08-30T05:41:29;15.40;99.90
17687;DHT22;8962;52.538;13.266;2022-08-30T05:43:58;15.50;99.90
17687;DHT22;8962;52.538;13.266;2022-08-30T05:46:29;15.60;99.90
17687;DHT22;8962;52.538;13.266;2022-08-30T05:48:58;15.70;99.90
17687;DHT22;8962;52.538;13.266;2022-08-30T05:51:27;15.90;99.90
17687;DHT22;8962;52.538;13.266;2022-08-30T05:53:57;16.00;99.90
17687;DHT22;8962;52.538;13.266;2022-08-30T05:56:27;16.00;99.90
17687;DHT22;8962;52.538;13.266;2022-08-30T05:58:59;15.90;99.90
17687;DHT22;8962;52.538;13.266;2022-08-30T06:01:28;16.10;99.90
17687;DHT22;8962;52.538;13.266;2022-08-30T06:03:57;16.10;99.90
17687;DHT22;8962;52.538;13.266;2022-08-30T06:06:25;16.20;99.90
17687;DHT22;8962;52.538;13.266;2022-08-30T06:08:52;16.30;99.90
17687;DHT22;8962;52.538;13.266;2022-08-30T06:11:22;16.20;99.90
17687;DHT22;8962;52.538;13.266;2022-08-30T06:13:52;16.60;99.90
17687;DHT22;8962;52.538;13.266;2022-08-30T06:16:23;16.70;99.90
17687;DHT22;8962;52.538;13.266;2022-08-30T06:18:51;16.80;99.90
17687;DHT22;8962;52.538;13.266;2022-08-30T06:21:22;16.80;99.90
17687;DHT22;8962;52.538;13.266;2022-08-30T06:23:50;16.90;99.90
17687;DHT22;8962;52.538;13.266;2022-08-30T06:26:20;17.00;99.90
17687;DHT22;8962;52.538;13.266;2022-08-30T06:28:49;17.10;99.90
17687;DHT22;8962;52.538;13.266;2022-08-30T06:31:19;17.20;99.90
17687;DHT22;8962;52.538;13.266;2022-08-30T06:33:51;17.30;99.90
17687;DHT22;8962;52.538;13.266;2022-08-30T06:36:20;17.40;99.90
17687;DHT22;8962;52.538;13.266;2022-08-30T06:38:49;17.50;99.90
17687;DHT22;8962;52.538;13.266;2022-08-30T06:41:21;17.50;99.90
17687;DHT22;8962;52.538;13.266;2022-08-30T06:43:49;17.40;99.90
17687;DHT22;8962;52.538;13.266;2022-08-30T06:46:18;17.50;99.90
17687;DHT22;8962;52.538;13.266;2022-08-30T06:48:45;17.60;99.90
17687;DHT22;8962;52.538;13.266;2022-08-30T06:51:17;17.50;99.90
17687;DHT22;8962;52.538;13.266;2022-08-30T06:53:45;17.60;99.90
17687;DHT22;8962;52.538;13.266;2022-08-30T06:56:13;17.50;99.90
17687;DHT22;8962;52.538;13.266;2022-08-30T06:58:44;17.60;99.90
17687;DHT22;8962;52.538;13.266;2022-08-30T07:01:12;17.60;99.90
17687;DHT22;8962;52.538;13.266;2022-08-30T07:03:40;17.60;99.90
17687;DHT22;8962;52.538;13.266;2022-08-30T07:06:08;17.70;99.90
17687;DHT22;8962;52.538;13.266;2022-08-30T07:08:39;17.90;99.90
17687;DHT22;8962;52.538;13.266;2022-08-30T07:11:07;17.70;99.90
17687;DHT22;8962;52.538;13.266;2022-08-30T07:13:36;17.80;99.90
17687;DHT22;8962;52.538;13.266;2022-08-30T07:16:08;18.10;99.90
17687;DHT22;8962;52.538;13.266;2022-08-30T07:18:37;18.10;99.90
17687;DHT22;8962;52.538;13.266;2022-08-30T07:21:17;18.30;99.90
17687;DHT22;8962;52.538;13.266;2022-08-30T07:23:48;18.30;99.90
17687;DHT22;8962;52.538;13.266;2022-08-30T07:26:17;18.50;99.90
17687;DHT22;8962;52.538;13.266;2022-08-30T07:28:45;18.70;99.90
17687;DHT22;8962;52.538;13.266;2022-08-30T07:31:16;19.00;99.90
17687;DHT22;8962;52.538;13.266;2022-08-30T07:33:45;19.20;99.90
17687;DHT22;8962;52.538;13.266;2022-08-30T07:36:13;19.40;99.90
17687;DHT22;8962;52.538;13.266;2022-08-30T07:41:51;19.40;99.90
17687;DHT22;8962;52.538;13.266;2022-08-30T07:44:21;19.20;99.90
17687;DHT22;8962;52.538;13.266;2022-08-30T07:46:48;19.70;99.90
17687;DHT22;8962;52.538;13.266;2022-08-30T07:49:17;19.90;99.90
17687;DHT22;8962;52.538;13.266;2022-08-30T07:51:45;20.00;99.90
17687;DHT22;8962;52.538;13.266;2022-08-30T07:54:12;20.30;99.90
17687;DHT22;8962;52.538;13.266;2022-08-30T07:56:40;20.40;99.90
17687;DHT22;8962;52.538;13.266;2022-08-30T07:59:08;20.20;99.90
17687;DHT22;8962;52.538;13.266;2022-08-30T08:01:38;20.30;99.90
17687;DHT22;8962;52.538;13.266;2022-08-30T08:04:05;20.10;99.90
17687;DHT22;8962;52.538;13.266;2022-08-30T08:06:36;19.60;99.90
17687;DHT22;8962;52.538;13.266;2022-08-30T08:09:07;19.50;99.90
17687;DHT22;8962;52.538;13.266;2022-08-30T08:11:36;19.10;99.90
17687;DHT22;8962;52.538;13.266;2022-08-30T08:14:06;18.90;99.90
17687;DHT22;8962;52.538;13.266;2022-08-30T08:16:37;18.70;99.90
17687;DHT22;8962;52.538;13.266;2022-08-30T08:19:05;18.80;99.90
17687;DHT22;8962;52.538;13.266;2022-08-30T08:21:34;18.90;99.90
17687;DHT22;8962;52.538;13.266;2022-08-30T08:24:03;19.30;99.90
17687;DHT22;8962;52.538;13.266;2022-08-30T08:26:34;19.60;99.90
17687;DHT22;8962;52.538;13.266;2022-08-30T08:29:02;19.90;99.90
17687;DHT22;8962;52.538;13.266;2022-08-30T08:31:29;19.90;99.90
17687;DHT22;8962;52.538;13.266;2022-08-30T08:34:00;19.70;99.90
17687;DHT22;8962;52.538;13.266;2022-08-30T08:36:28;20.00;99.90
17687;DHT22;8962;52.538;13.266;2022-08-30T08:38:56;20.30;99.90
17687;DHT22;8962;52.538;13.266;2022-08-30T08:41:32;20.70;99.90
17687;DHT22;8962;52.538;13.266;2022-08-30T08:44:09;20.80;99.90
17687;DHT22;8962;52.538;13.266;2022-08-30T08:46:43;20.90;99.90
17687;DHT22;8962;52.538;13.266;2022-08-30T08:49:17;20.20;99.90
17687;DHT22;8962;52.538;13.266;2022-08-30T08:51:44;19.60;99.90
17687;DHT22;8962;52.538;13.266;2022-08-30T08:54:33;19.50;99.90
17687;DHT22;8962;52.538;13.266;2022-08-30T08:57:03;19.60;99.90
17687;DHT22;8962;52.538;13.266;2022-08-30T08:59:31;19.60;99.90
17687;DHT22;8962;52.538;13.266;2022-08-30T09:02:01;19.40;99.90
17687;DHT22;8962;52.538;13.266;2022-08-30T09:04:38;19.00;99.90
17687;DHT22;8962;52.538;13.266;2022-08-30T09:07:16;18.80;99.90
17687;DHT22;8962;52.538;13.266;2022-08-30T09:09:47;18.60;99.90
17687;DHT22;8962;52.538;13.266;2022-08-30T09:12:16;18.80;99.90
17687;DHT22;8962;52.538;13.266;2022-08-30T09:14:47;18.90;99.90
17687;DHT22;8962;52.538;13.266;2022-08-30T09:17:16;19.30;99.90
17687;DHT22;8962;52.538;13.266;2022-08-30T09:19:56;19.60;99.90
17687;DHT22;8962;52.538;13.266;2022-08-30T09:22:29;19.50;99.90
17687;DHT22;8962;52.538;13.266;2022-08-30T09:25:00;19.40;99.90
17687;DHT22;8962;52.538;13.266;2022-08-30T09:27:31;19.50;99.90
17687;DHT22;8962;52.538;13.266;2022-08-30T09:30:03;19.40;99.90
17687;DHT22;8962;52.538;13.266;2022-08-30T09:32:35;19.50;99.90
17687;DHT22;8962;52.538;13.266;2022-08-30T09:35:08;19.50;99.90
17687;DHT22;8962;52.538;13.266;2022-08-30T09:37:38;19.50;99.90
17687;DHT22;8962;52.538;13.266;2022-08-30T09:40:13;19.70;99.90
17687;DHT22;8962;52.538;13.266;2022-08-30T09:42:56;20.10;99.90
17687;DHT22;8962;52.538;13.266;2022-08-30T09:45:30;20.30;99.90
17687;DHT22;8962;52.538;13.266;2022-08-30T09:47:57;20.90;99.90
17687;DHT22;8962;52.538;13.266;2022-08-30T09:50:26;21.10;99.90
17687;DHT22;8962;52.538;13.266;2022-08-30T09:53:05;21.00;99.90
17687;DHT22;8962;52.538;13.266;2022-08-30T09:55:51;20.60;99.90
17687;DHT22;8962;52.538;13.266;2022-08-30T09:58:28;20.40;99.90
17687;DHT22;8962;52.538;13.266;2022-08-30T10:01:03;20.40;99.90
17687;DHT22;8962;52.538;13.266;2022-08-30T10:03:35;20.40;99.90
17687;DHT22;8962;52.538;13.266;2022-08-30T10:06:12;20.30;99.90
17687;DHT22;8962;52.538;13.266;2022-08-30T10:08:51;20.50;99.90
17687;DHT22;8962;52.538;13.266;2022-08-30T10:11:31;20.70;99.90
17687;DHT22;8962;52.538;13.266;2022-08-30T10:14:19;20.90;99.90
17687;DHT22;8962;52.538;13.266;2022-08-30T10:16:54;20.40;99.90
17687;DHT22;8962;52.538;13.266;2022-08-30T10:19:34;20.10;99.90
17687;DHT22;8962;52.538;13.266;2022-08-30T10:22:08;20.20;99.90
17687;DHT22;8962;52.538;13.266;2022-08-30T10:24:42;20.60;99.90
17687;DHT22;8962;52.538;13.266;2022-08-30T10:27:13;20.70;99.90
17687;DHT22;8962;52.538;13.266;2022-08-30T10:29:48;21.00;99.90
17687;DHT22;8962;52.538;13.266;2022-08-30T10:32:21;21.10;99.90
17687;DHT22;8962;52.538;13.266;2022-08-30T10:34:54;21.60;99.90
17687;DHT22;8962;52.538;13.266;2022-08-30T10:37:25;21.70;99.90
17687;DHT22;8962;52.538;13.266;2022-08-30T10:39:56;22.00;99.90
17687;DHT22;8962;52.538;13.266;2022-08-30T10:42:45;22.40;99.90
17687;DHT22;8962;52.538;13.266;2022-08-30T10:45:15;22.50;99.90
17687;DHT22;8962;52.538;13.266;2022-08-30T10:47:52;22.10;99.90
17687;DHT22;8962;52.538;13.266;2022-08-30T10:50:26;22.30;99.90
17687;DHT22;8962;52.538;13.266;2022-08-30T10:53:00;22.30;99.90
17687;DHT22;8962;52.538;13.266;2022-08-30T10:55:35;22.10;99.90
17687;DHT22;8962;52.538;13.266;2022-08-30T10:58:10;22.30;99.90
17687;DHT22;8962;52.538;13.266;2022-08-30T11:00:49;22.70;99.90
17687;DHT22;8962;52.538;13.266;2022-08-30T11:06:39;22.90;99.90
17687;DHT22;8962;52.538;13.266;2022-08-30T11:09:33;22.90;99.90
17687;DHT22;8962;52.538;13.266;2022-08-30T11:12:30;23.40;99.90
17687;DHT22;8962;52.538;13.266;2022-08-30T11:14:59;23.30;99.90
17687;DHT22;8962;52.538;13.266;2022-08-30T11:17:38;24.00;99.90
17687;DHT22;8962;52.538;13.266;2022-08-30T11:20:21;24.20;99.90
17687;DHT22;8962;52.538;13.266;2022-08-30T11:23:22;24.20;99.90
17687;DHT22;8962;52.538;13.266;2022-08-30T11:25:54;24.20;99.90
17687;DHT22;8962;52.538;13.266;2022-08-30T11:29:02;24.70;99.90
17687;DHT22;8962;52.538;13.266;2022-08-30T11:31:40;25.30;99.90
17687;DHT22;8962;52.538;13.266;2022-08-30T11:34:10;24.50;99.90
17687;DHT22;8962;52.538;13.266;2022-08-30T11:37:05;24.40;99.90
17687;DHT22;8962;52.538;13.266;2022-08-30T11:40:00;23.90;99.90
17687;DHT22;8962;52.538;13.266;2022-08-30T11:45:47;24.40;99.90
17687;DHT22;8962;52.538;13.266;2022-08-30T11:48:40;26.60;99.90
17687;DHT22;8962;52.538;13.266;2022-08-30T11:51:49;27.40;99.90
17687;DHT22;8962;52.538;13.266;2022-08-30T11:54:30;28.50;99.90
17687;DHT22;8962;52.538;13.266;2022-08-30T11:57:05;26.60;99.90
17687;DHT22;8962;52.538;13.266;2022-08-30T11:59:48;27.00;99.90
17687;DHT22;8962;52.538;13.266;2022-08-30T12:02:47;27.60;99.90
17687;DHT22;8962;52.538;13.266;2022-08-30T12:05:53;28.10;99.90
17687;DHT22;8962;52.538;13.266;2022-08-30T12:08:49;26.50;99.90
17687;DHT22;8962;52.538;13.266;2022-08-30T12:11:53;27.70;99.90
17687;DHT22;8962;52.538;13.266;2022-08-30T12:14:55;27.50;99.90
17687;DHT22;8962;52.538;13.266;2022-08-30T12:17:27;27.00;99.90
17687;DHT22;8962;52.538;13.266;2022-08-30T12:20:19;26.80;99.90
17687;DHT22;8962;52.538;13.266;2022-08-30T12:22:48;26.40;99.90
17687;DHT22;8962;52.538;13.266;2022-08-30T12:25:23;26.90;99.90
17687;DHT22;8962;52.538;13.266;2022-08-30T12:27:51;26.10;99.90
17687;DHT22;8962;52.538;13.266;2022-08-30T12:30:35;25.80;99.90
17687;DHT22;8962;52.538;13.266;2022-08-30T12:33:08;25.60;99.90
17687;DHT22;8962;52.538;13.266;2022-08-30T12:35:37;25.10;99.90
17687;DHT22;8962;52.538;13.266;2022-08-30T12:38:13;24.60;99.90
17687;DHT22;8962;52.538;13.266;2022-08-30T12:40:49;24.30;99.90
17687;DHT22;8962;52.538;13.266;2022-08-30T12:43:26;24.30;99.90
17687;DHT22;8962;52.538;13.266;2022-08-30T12:45:59;24.00;99.90
17687;DHT22;8962;52.538;13.266;2022-08-30T12:48:33;24.20;99.90
17687;DHT22;8962;52.538;13.266;2022-08-30T12:51:04;24.50;99.90
17687;DHT22;8962;52.538;13.266;2022-08-30T12:53:39;24.30;99.90
17687;DHT22;8962;52.538;13.266;2022-08-30T12:56:15;24.00;99.90
17687;DHT22;8962;52.538;13.266;2022-08-30T12:58:46;24.20;99.90
17687;DHT22;8962;52.538;13.266;2022-08-30T13:01:29;24.30;99.90
17687;DHT22;8962;52.538;13.266;2022-08-30T13:04:02;24.70;99.90
17687;DHT22;8962;52.538;13.266;2022-08-30T13:06:41;24.90;99.90
17687;DHT22;8962;52.538;13.266;2022-08-30T13:09:13;25.20;99.90
17687;DHT22;8962;52.538;13.266;2022-08-30T13:11:48;24.50;99.90
17687;DHT22;8962;52.538;13.266;2022-08-30T13:14:32;24.60;99.90
17687;DHT22;8962;52.538;13.266;2022-08-30T13:17:21;25.50;99.90
17687;DHT22;8962;52.538;13.266;2022-08-30T13:20:00;25.40;99.90
17687;DHT22;8962;52.538;13.266;2022-08-30T13:22:32;26.00;99.90
17687;DHT22;8962;52.538;13.266;2022-08-30T13:25:04;26.40;99.90
17687;DHT22;8962;52.538;13.266;2022-08-30T13:27:35;26.30;99.90
17687;DHT22;8962;52.538;13.266;2022-08-30T13:30:06;26.00;99.90
17687;DHT22;8962;52.538;13.266;2022-08-30T13:32:35;25.40;99.90
17687;DHT22;8962;52.538;13.266;2022-08-30T13:35:04;25.00;99.90
17687;DHT22;8962;52.538;13.266;2022-08-30T13:37:33;25.00;99.90
17687;DHT22;8962;52.538;13.266;2022-08-30T13:40:03;25.10;99.90
17687;DHT22;8962;52.538;13.266;2022-08-30T13:42:33;25.30;99.90
17687;DHT22;8962;52.538;13.266;2022-08-30T13:45:00;24.70;99.90
17687;DHT22;8962;52.538;13.266;2022-08-30T13:47:29;24.60;99.90
17687;DHT22;8962;52.538;13.266;2022-08-30T13:49:59;24.50;99.90
17687;DHT22;8962;52.538;13.266;2022-08-30T13:52:27;24.80;99.90
17687;DHT22;8962;52.538;13.266;2022-08-30T13:54:55;24.40;99.90
17687;DHT22;8962;52.538;13.266;2022-08-30T13:57:25;24.00;99.90
17687;DHT22;8962;52.538;13.266;2022-08-30T13:59:52;23.70;99.90
17687;DHT22;8962;52.538;13.266;2022-08-30T14:02:19;23.20;99.90
17687;DHT22;8962;52.538;13.266;2022-08-30T14:04:47;23.10;99.90
17687;DHT22;8962;52.538;13.266;2022-08-30T14:07:16;23.00;99.90
17687;DHT22;8962;52.538;13.266;2022-08-30T14:09:44;22.80;99.90
17687;DHT22;8962;52.538;13.266;2022-08-30T14:12:12;22.70;99.90
17687;DHT22;8962;52.538;13.266;2022-08-30T14:14:46;22.70;99.90
17687;DHT22;8962;52.538;13.266;2022-08-30T14:17:16;22.70;99.90
17687;DHT22;8962;52.538;13.266;2022-08-30T14:19:43;22.50;99.90
17687;DHT22;8962;52.538;13.266;2022-08-30T14:22:11;22.20;99.90
17687;DHT22;8962;52.538;13.266;2022-08-30T14:24:40;22.00;99.90
17687;DHT22;8962;52.538;13.266;2022-08-30T14:27:07;21.80;99.90
17687;DHT22;8962;52.538;13.266;2022-08-30T14:29:34;22.00;99.90
17687;DHT22;8962;52.538;13.266;2022-08-30T14:32:03;21.80;99.90
17687;DHT22;8962;52.538;13.266;2022-08-30T14:34:30;21.90;99.90
17687;DHT22;8962;52.538;13.266;2022-08-30T14:36:59;22.30;99.90
17687;DHT22;8962;52.538;13.266;2022-08-30T14:39:26;22.40;99.90
17687;DHT22;8962;52.538;13.266;2022-08-30T14:42:02;22.40;99.90
17687;DHT22;8962;52.538;13.266;2022-08-30T14:44:29;22.30;99.90
17687;DHT22;8962;52.538;13.266;2022-08-30T14:47:02;22.10;99.90
17687;DHT22;8962;52.538;13.266;2022-08-30T14:49:31;22.40;99.90
17687;DHT22;8962;52.538;13.266;2022-08-30T14:51:59;22.60;99.90
17687;DHT22;8962;52.538;13.266;2022-08-30T14:54:27;22.80;99.90
17687;DHT22;8962;52.538;13.266;2022-08-30T14:56:57;22.50;99.90
17687;DHT22;8962;52.538;13.266;2022-08-30T14:59:25;22.40;99.90
17687;DHT22;8962;52.538;13.266;2022-08-30T15:01:52;22.50;99.90
17687;DHT22;8962;52.538;13.266;2022-08-30T15:04:20;22.90;99.90
17687;DHT22;8962;52.538;13.266;2022-08-30T15:06:48;23.00;99.90
17687;DHT22;8962;52.538;13.266;2022-08-30T15:09:18;23.40;99.90
17687;DHT22;8962;52.538;13.266;2022-08-30T15:11:49;23.00;99.90
17687;DHT22;8962;52.538;13.266;2022-08-30T15:14:20;23.00;99.90
17687;DHT22;8962;52.538;13.266;2022-08-30T15:16:46;23.00;99.90
17687;DHT22;8962;52.538;13.266;2022-08-30T15:19:14;22.70;99.90
17687;DHT22;8962;52.538;13.266;2022-08-30T15:21:43;22.70;99.90
17687;DHT22;8962;52.538;13.266;2022-08-30T15:24:15;22.80;99.90
17687;DHT22;8962;52.538;13.266;2022-08-30T15:26:46;22.60;99.90
17687;DHT22;8962;52.538;13.266;2022-08-30T15:29:15;22.60;99.90
17687;DHT22;8962;52.538;13.266;2022-08-30T15:31:45;22.30;99.90
17687;DHT22;8962;52.538;13.266;2022-08-30T15:34:16;22.30;99.90
17687;DHT22;8962;52.538;13.266;2022-08-30T15:36:44;22.70;99.90
17687;DHT22;8962;52.538;13.266;2022-08-30T15:39:13;22.70;99.90
17687;DHT22;8962;52.538;13.266;2022-08-30T15:41:41;23.00;99.90
17687;DHT22;8962;52.538;13.266;2022-08-30T15:44:11;22.70;99.90
17687;DHT22;8962;52.538;13.266;2022-08-30T15:46:40;22.60;99.90
17687;DHT22;8962;52.538;13.266;2022-08-30T15:49:11;22.60;99.90
17687;DHT22;8962;52.538;13.266;2022-08-30T15:51:40;22.40;99.90
17687;DHT22;8962;52.538;13.266;2022-08-30T15:54:09;22.20;99.90
17687;DHT22;8962;52.538;13.266;2022-08-30T15:56:39;22.20;99.90
17687;DHT22;8962;52.538;13.266;2022-08-30T15:59:06;22.30;99.90
17687;DHT22;8962;52.538;13.266;2022-08-30T16:01:33;22.40;99.90
17687;DHT22;8962;52.538;13.266;2022-08-30T16:04:01;22.20;99.90
17687;DHT22;8962;52.538;13.266;2022-08-30T16:06:31;21.80;99.90